Terminal Aerodrome Forecast
Issued by NWS Mt. Holly, NJ

Home | Current Version | Previous Version | Text Only | Print | Product List | Glossary On
Versions: 1 2 3 4 5 6 7 8 9 10 11 12 13 14 15 16 17 18 19
000
FTUS41 KPHI 201700
TAFILG
TAF
KILG 201720Z 2018/2118 15013KT P6SM SKC
      TEMPO 2018/2020 BKN045
     FM210000 15005KT P6SM BKN040
     FM210600 16003KT 6SM BR BKN025
     FM210900 18002KT 4SM BR BKN015
     FM211400 21005KT P6SM SCT020 BKN200=

USA.gov is the U.S. government's official web portal to all federal, state and local government web resources and services.